createdAt,value
2018-11-07T00:00:58.835Z,44.90
2018-11-07T00:03:25.066Z,44.90
2018-11-07T00:05:51.294Z,44.80
2018-11-07T00:08:17.657Z,44.90
2018-11-07T00:10:43.755Z,44.90
2018-11-07T00:13:09.989Z,44.90
2018-11-07T00:15:36.217Z,44.90
2018-11-07T00:18:02.446Z,44.90
2018-11-07T00:20:28.674Z,44.90
2018-11-07T00:22:54.896Z,44.80
2018-11-07T00:25:21.137Z,44.80
2018-11-07T00:27:47.367Z,44.80
2018-11-07T00:30:13.678Z,44.80
2018-11-07T00:32:39.820Z,44.80
2018-11-07T00:35:06.108Z,44.80
2018-11-07T00:37:32.287Z,44.80
2018-11-07T00:39:58.510Z,44.70
2018-11-07T00:42:24.751Z,44.80
2018-11-07T00:44:50.976Z,44.80
2018-11-07T00:47:17.207Z,44.80
2018-11-07T00:49:43.423Z,44.70
2018-11-07T00:52:09.662Z,44.70
2018-11-07T00:54:35.891Z,44.80
2018-11-07T00:57:02.120Z,44.80
2018-11-07T00:59:28.352Z,44.80
2018-11-07T01:01:54.583Z,44.80
2018-11-07T01:04:20.809Z,44.80
2018-11-07T01:06:47.039Z,44.70
2018-11-07T01:09:13.267Z,44.80
2018-11-07T01:11:39.495Z,44.70
2018-11-07T01:14:05.751Z,44.70
2018-11-07T01:16:31.995Z,44.70
2018-11-07T01:18:58.191Z,44.70
2018-11-07T01:21:24.413Z,44.70
2018-11-07T01:23:50.651Z,44.70
2018-11-07T01:31:20.399Z,44.80
2018-11-07T01:33:46.629Z,44.80
2018-11-07T01:36:12.856Z,44.80
2018-11-07T01:38:39.091Z,44.70
2018-11-07T01:41:05.312Z,44.70
2018-11-07T01:43:31.543Z,44.70
2018-11-07T01:45:57.775Z,44.70
2018-11-07T01:48:24.008Z,44.70
2018-11-07T01:50:50.234Z,44.70
2018-11-07T01:53:16.468Z,44.70
2018-11-07T01:55:42.692Z,44.70
2018-11-07T01:58:08.918Z,44.70
2018-11-07T02:00:35.155Z,44.60
2018-11-07T02:03:01.398Z,44.60
2018-11-07T02:05:27.616Z,44.60
2018-11-07T02:07:53.843Z,44.60
2018-11-07T02:10:20.070Z,44.60
2018-11-07T02:12:46.300Z,44.60
2018-11-07T02:15:12.531Z,44.70
2018-11-07T02:17:38.767Z,44.60
2018-11-07T02:20:05.002Z,44.60
2018-11-07T02:22:31.222Z,44.60
2018-11-07T02:24:57.446Z,44.60
2018-11-07T02:27:23.691Z,44.60
2018-11-07T02:29:49.916Z,44.60
2018-11-07T02:32:16.144Z,44.60
2018-11-07T02:34:42.377Z,44.60
2018-11-07T02:37:08.705Z,44.60
2018-11-07T02:39:34.824Z,44.60
2018-11-07T02:42:01.094Z,44.60
2018-11-07T02:44:27.292Z,44.60
2018-11-07T02:46:56.808Z,45.10
2018-11-07T02:49:23.020Z,44.60
2018-11-07T02:51:49.259Z,44.60
2018-11-07T02:54:15.491Z,44.60
2018-11-07T02:56:41.781Z,45.20
2018-11-07T02:59:07.949Z,44.60
2018-11-07T03:01:34.180Z,44.60
2018-11-07T03:04:00.423Z,44.60
2018-11-07T03:06:26.636Z,44.60
2018-11-07T03:08:52.868Z,44.50
2018-11-07T03:11:19.105Z,44.50
2018-11-07T03:13:45.327Z,44.50
2018-11-07T03:16:11.550Z,44.50
2018-11-07T03:18:37.783Z,44.50
2018-11-07T03:21:04.014Z,44.50
2018-11-07T03:23:30.249Z,44.50
2018-11-07T03:25:56.411Z,44.70
2018-11-07T03:28:22.712Z,44.50
2018-11-07T03:30:48.928Z,44.50
2018-11-07T03:33:15.169Z,44.50
2018-11-07T03:35:41.395Z,44.50
2018-11-07T03:38:07.618Z,44.40
2018-11-07T03:40:33.860Z,44.40
2018-11-07T03:43:00.083Z,44.50
2018-11-07T03:45:26.306Z,44.40
2018-11-07T03:47:52.539Z,44.50
2018-11-07T03:50:18.779Z,44.40
2018-11-07T03:52:45.008Z,44.40
2018-11-07T03:55:11.236Z,44.40
2018-11-07T03:57:37.459Z,45.00
2018-11-07T04:00:03.712Z,44.50
2018-11-07T04:02:29.924Z,44.40
2018-11-07T04:04:56.158Z,44.40
2018-11-07T04:07:22.383Z,44.40
2018-11-07T04:09:48.616Z,44.50
2018-11-07T04:12:14.849Z,44.50
2018-11-07T04:14:44.770Z,44.50
2018-11-07T04:17:10.992Z,44.50
2018-11-07T04:19:37.215Z,44.30
2018-11-07T04:22:03.445Z,44.50
2018-11-07T04:24:29.681Z,44.30
2018-11-07T04:26:55.910Z,44.40
2018-11-07T04:29:22.135Z,44.40
2018-11-07T04:31:48.360Z,44.40
2018-11-07T04:34:14.605Z,44.40
2018-11-07T04:36:40.828Z,44.30
2018-11-07T04:39:07.055Z,44.40
2018-11-07T04:41:33.287Z,44.40
2018-11-07T04:43:59.515Z,44.40
2018-11-07T04:46:25.743Z,44.30
2018-11-07T04:48:51.980Z,44.30
2018-11-07T04:51:18.200Z,44.30
2018-11-07T04:53:44.450Z,44.40
2018-11-07T04:56:10.663Z,44.40
2018-11-07T04:58:36.891Z,44.40
2018-11-07T05:01:03.133Z,44.40
2018-11-07T05:03:29.358Z,44.40
2018-11-07T05:05:55.582Z,44.40
2018-11-07T05:08:21.818Z,44.40
2018-11-07T05:10:48.039Z,44.40
2018-11-07T05:13:14.274Z,44.40
2018-11-07T05:15:40.514Z,44.40
2018-11-07T05:18:06.730Z,44.40
2018-11-07T05:20:32.966Z,44.40
2018-11-07T05:22:59.191Z,44.40
2018-11-07T05:25:25.423Z,44.30
2018-11-07T05:27:51.653Z,44.30
2018-11-07T05:30:17.883Z,44.40
2018-11-07T05:32:44.111Z,44.30
2018-11-07T05:35:10.337Z,44.30
2018-11-07T05:37:36.571Z,44.20
2018-11-07T05:40:02.820Z,44.20
2018-11-07T05:42:29.026Z,44.20
2018-11-07T05:44:55.260Z,44.30
2018-11-07T05:47:21.491Z,44.20
2018-11-07T05:49:47.715Z,44.40
2018-11-07T05:52:13.955Z,44.40
2018-11-07T05:54:40.178Z,44.30
2018-11-07T05:57:06.413Z,44.20
2018-11-07T05:59:32.638Z,44.20
2018-11-07T06:01:58.871Z,44.30
2018-11-07T06:04:25.102Z,44.20
2018-11-07T06:06:51.322Z,44.20
2018-11-07T06:09:17.555Z,44.30
2018-11-07T06:11:43.802Z,44.30
2018-11-07T06:14:10.029Z,44.20
2018-11-07T06:16:36.261Z,44.10
2018-11-07T06:19:02.473Z,44.20
2018-11-07T06:21:28.712Z,44.20
2018-11-07T06:23:54.930Z,44.10
2018-11-07T06:26:21.172Z,44.10
2018-11-07T06:28:47.399Z,44.20
2018-11-07T06:31:13.638Z,44.20
2018-11-07T06:33:39.855Z,44.10
2018-11-07T06:36:06.082Z,44.20
2018-11-07T06:38:32.326Z,44.10
2018-11-07T06:40:58.543Z,44.20
2018-11-07T06:43:24.774Z,44.10
2018-11-07T06:45:50.998Z,44.10
2018-11-07T06:48:17.236Z,44.10
2018-11-07T06:50:43.471Z,44.10
2018-11-07T06:53:09.696Z,44.70
2018-11-07T06:55:35.929Z,44.20
2018-11-07T06:58:02.152Z,44.00
2018-11-07T07:03:03.225Z,44.00
2018-11-07T07:10:33.790Z,44.00
2018-11-07T07:13:00.013Z,44.10
2018-11-07T07:15:26.241Z,44.10
2018-11-07T07:17:52.531Z,44.00
2018-11-07T07:20:18.698Z,44.10
2018-11-07T07:22:44.945Z,44.00
2018-11-07T07:25:11.163Z,44.00
2018-11-07T07:27:37.392Z,44.00
2018-11-07T07:30:03.636Z,44.00
2018-11-07T07:32:29.844Z,44.00
2018-11-07T07:34:56.087Z,44.00
2018-11-07T07:37:22.318Z,44.00
2018-11-07T07:39:48.547Z,44.00
2018-11-07T07:42:14.780Z,44.00
2018-11-07T07:44:40.999Z,44.00
2018-11-07T07:47:07.239Z,44.00
2018-11-07T07:49:33.464Z,44.00
2018-11-07T07:51:59.686Z,44.00
2018-11-07T07:54:25.927Z,43.90
2018-11-07T07:56:52.151Z,44.00
2018-11-07T07:59:18.383Z,43.90
2018-11-07T08:01:44.615Z,43.90
2018-11-07T08:04:10.849Z,43.80
2018-11-07T08:06:37.071Z,43.80
2018-11-07T08:09:03.291Z,43.80
2018-11-07T08:11:29.531Z,43.80
2018-11-07T08:13:55.801Z,43.90
2018-11-07T08:16:21.987Z,43.90
2018-11-07T08:18:48.215Z,43.90
2018-11-07T08:21:14.470Z,43.80
2018-11-07T08:23:40.674Z,43.90
2018-11-07T08:26:06.903Z,43.80
2018-11-07T08:28:33.135Z,43.80
2018-11-07T08:30:59.468Z,43.80
2018-11-07T08:33:25.589Z,43.80
2018-11-07T08:35:51.819Z,43.80
2018-11-07T08:38:18.054Z,43.80
2018-11-07T08:40:44.287Z,43.80
2018-11-07T08:43:10.510Z,43.80
2018-11-07T08:45:36.752Z,43.80
2018-11-07T08:48:02.989Z,43.80
2018-11-07T08:50:29.203Z,43.80
2018-11-07T08:52:55.449Z,43.80
2018-11-07T08:55:21.665Z,43.80
2018-11-07T08:57:47.892Z,43.90
2018-11-07T09:00:14.126Z,43.80
2018-11-07T09:02:40.344Z,43.90
2018-11-07T09:05:06.580Z,43.80
2018-11-07T09:07:32.808Z,43.80
2018-11-07T09:09:59.032Z,43.80
2018-11-07T09:12:25.670Z,43.90
2018-11-07T09:14:51.891Z,43.90
2018-11-07T09:17:18.120Z,43.80
2018-11-07T09:19:44.386Z,43.80
2018-11-07T09:22:10.578Z,43.90
2018-11-07T09:24:36.804Z,43.80
2018-11-07T09:27:03.044Z,43.80
2018-11-07T09:29:29.260Z,43.80
2018-11-07T09:31:55.496Z,43.90
2018-11-07T09:34:21.725Z,43.90
2018-11-07T09:36:47.948Z,43.90
2018-11-07T09:39:14.170Z,43.90
2018-11-07T09:41:40.410Z,43.90
2018-11-07T09:44:06.637Z,43.90
2018-11-07T09:46:32.865Z,43.90
2018-11-07T09:48:59.087Z,43.90
2018-11-07T09:51:25.317Z,43.90
2018-11-07T09:53:51.608Z,43.90
2018-11-07T09:56:17.769Z,43.90
2018-11-07T09:58:44.002Z,43.90
2018-11-07T10:01:10.227Z,43.90
2018-11-07T10:03:36.459Z,43.90
2018-11-07T10:06:02.687Z,43.90
2018-11-07T10:08:28.926Z,43.90
2018-11-07T10:10:55.148Z,43.90
2018-11-07T10:13:21.367Z,43.90
2018-11-07T10:18:19.158Z,43.90
2018-11-07T10:20:45.458Z,43.90
2018-11-07T10:23:11.621Z,43.90
2018-11-07T10:25:37.848Z,43.90
2018-11-07T10:28:04.489Z,43.90
2018-11-07T10:30:30.335Z,43.90
2018-11-07T10:32:56.536Z,43.90
2018-11-07T10:35:22.765Z,44.00
2018-11-07T10:37:49.019Z,43.90
2018-11-07T10:40:15.222Z,43.90
2018-11-07T10:42:41.443Z,43.90
2018-11-07T10:45:07.680Z,44.00
2018-11-07T10:47:33.907Z,43.90
2018-11-07T10:50:00.135Z,43.90
2018-11-07T10:52:26.362Z,43.90
2018-11-07T10:54:52.600Z,44.00
2018-11-07T10:57:18.827Z,44.00
2018-11-07T10:59:45.051Z,43.90
2018-11-07T11:02:11.280Z,43.90
2018-11-07T11:04:37.515Z,43.90
2018-11-07T11:07:03.739Z,44.00
2018-11-07T11:09:29.974Z,43.90
2018-11-07T11:11:56.202Z,43.90
2018-11-07T11:14:22.426Z,43.90
2018-11-07T11:16:48.719Z,43.90
2018-11-07T11:19:14.888Z,43.90
2018-11-07T11:21:41.119Z,44.00
2018-11-07T11:24:07.347Z,44.00
2018-11-07T11:26:33.569Z,43.90
2018-11-07T11:28:59.796Z,43.90
2018-11-07T11:31:26.074Z,44.00
2018-11-07T11:33:52.309Z,43.90
2018-11-07T11:36:18.510Z,43.90
2018-11-07T11:38:44.715Z,44.00
2018-11-07T11:41:11.043Z,44.00
2018-11-07T11:43:37.180Z,44.00
2018-11-07T11:46:03.408Z,44.00
2018-11-07T11:48:29.646Z,44.00
2018-11-07T11:50:55.858Z,44.00
2018-11-07T11:53:22.087Z,44.00
2018-11-07T11:55:48.315Z,44.00
2018-11-07T11:58:14.550Z,44.00
2018-11-07T12:00:40.787Z,44.00
2018-11-07T12:03:07.019Z,44.10
2018-11-07T12:05:33.239Z,44.10
2018-11-07T12:07:59.480Z,44.00
2018-11-07T12:10:25.700Z,44.00
2018-11-07T12:12:51.920Z,44.00
2018-11-07T12:15:18.179Z,44.10
2018-11-07T12:22:51.018Z,44.00
2018-11-07T12:27:49.367Z,44.00
2018-11-07T12:30:15.598Z,44.00
2018-11-07T12:32:41.854Z,44.10
2018-11-07T12:35:08.054Z,44.00
2018-11-07T12:37:34.283Z,44.10
2018-11-07T12:40:00.538Z,44.00
2018-11-07T12:42:26.755Z,44.00
2018-11-07T12:44:52.974Z,44.00
2018-11-07T12:47:19.204Z,44.10
2018-11-07T12:49:45.468Z,44.10
2018-11-07T12:52:11.675Z,44.10
2018-11-07T12:54:37.888Z,44.00
2018-11-07T12:57:04.126Z,44.10
2018-11-07T12:59:30.347Z,44.10
2018-11-07T13:01:56.579Z,44.10
2018-11-07T13:04:22.812Z,44.10
2018-11-07T13:06:49.029Z,44.00
2018-11-07T13:09:15.279Z,44.00
2018-11-07T13:11:41.496Z,44.10
2018-11-07T13:14:07.726Z,44.00
2018-11-07T13:16:33.968Z,44.10
2018-11-07T13:19:00.181Z,44.10
2018-11-07T13:21:26.407Z,44.10
2018-11-07T13:23:52.631Z,44.10
2018-11-07T13:26:18.874Z,44.10
2018-11-07T13:28:45.165Z,44.00
2018-11-07T13:31:11.324Z,44.00
2018-11-07T13:33:37.551Z,44.00
2018-11-07T13:36:03.780Z,44.10
2018-11-07T13:38:30.291Z,44.00
2018-11-07T13:40:56.269Z,44.10
2018-11-07T13:43:22.463Z,44.10
2018-11-07T13:45:48.746Z,44.10
2018-11-07T13:48:14.919Z,44.00
2018-11-07T13:50:41.151Z,44.10
2018-11-07T13:53:07.400Z,44.10
2018-11-07T13:55:33.616Z,44.00
2018-11-07T13:57:59.851Z,44.10
2018-11-07T14:00:26.079Z,44.10
2018-11-07T14:02:52.285Z,44.00
2018-11-07T14:05:18.563Z,44.00
2018-11-07T14:07:44.746Z,44.10
2018-11-07T14:10:10.977Z,44.10
2018-11-07T14:12:37.206Z,44.10
2018-11-07T14:15:03.447Z,44.10
2018-11-07T14:17:29.658Z,44.10
2018-11-07T14:19:55.896Z,44.10
2018-11-07T14:22:22.116Z,44.20
2018-11-07T14:24:48.352Z,44.10
2018-11-07T14:27:14.580Z,44.10
2018-11-07T14:29:40.805Z,44.10
2018-11-07T14:32:07.045Z,44.10
2018-11-07T14:34:33.270Z,44.10
2018-11-07T14:36:59.559Z,44.10
2018-11-07T14:39:25.719Z,44.10
2018-11-07T14:41:51.947Z,44.10
2018-11-07T14:44:18.174Z,44.00
2018-11-07T14:46:44.419Z,44.00
2018-11-07T14:49:10.632Z,44.10
2018-11-07T14:51:36.854Z,44.10
2018-11-07T14:54:03.082Z,44.00
2018-11-07T14:56:29.324Z,44.10
2018-11-07T14:58:55.551Z,44.10
2018-11-07T15:01:21.767Z,44.10
2018-11-07T15:03:48.003Z,44.10
2018-11-07T15:06:14.317Z,44.10
2018-11-07T15:08:40.518Z,44.10
2018-11-07T15:11:06.714Z,44.10
2018-11-07T15:13:32.910Z,44.00
2018-11-07T15:15:59.152Z,44.00
2018-11-07T15:18:25.363Z,44.00
2018-11-07T15:20:51.607Z,44.00
2018-11-07T15:23:17.828Z,44.00
2018-11-07T15:25:44.055Z,44.00
2018-11-07T15:28:10.285Z,44.00
2018-11-07T15:30:36.514Z,44.00
2018-11-07T15:33:02.758Z,44.00
2018-11-07T15:35:28.981Z,44.00
2018-11-07T15:37:55.189Z,44.00
2018-11-07T15:40:21.416Z,44.00
2018-11-07T15:42:47.647Z,44.00
2018-11-07T15:45:13.878Z,44.00
2018-11-07T15:47:40.096Z,44.00
2018-11-07T15:50:06.337Z,44.00
2018-11-07T15:52:32.635Z,44.00
2018-11-07T15:54:58.791Z,44.00
2018-11-07T15:57:25.023Z,44.00
2018-11-07T15:59:51.250Z,44.00
2018-11-07T16:02:17.471Z,44.00
2018-11-07T16:04:43.698Z,44.00
2018-11-07T16:07:09.926Z,44.00
2018-11-07T16:09:36.156Z,44.00
2018-11-07T16:12:02.382Z,44.00
2018-11-07T16:14:28.623Z,44.00
2018-11-07T16:16:54.836Z,44.00
2018-11-07T16:19:21.071Z,44.00
2018-11-07T16:21:51.396Z,44.00
2018-11-07T16:24:18.030Z,44.00
2018-11-07T16:26:44.255Z,43.90
2018-11-07T16:29:10.484Z,43.90
2018-11-07T16:31:36.755Z,43.90
2018-11-07T16:34:02.943Z,43.90
2018-11-07T16:36:29.169Z,43.90
2018-11-07T16:49:09.398Z,43.90
2018-11-07T16:51:35.615Z,43.90
2018-11-07T16:54:01.844Z,43.90
2018-11-07T16:56:28.070Z,44.00
2018-11-07T16:58:54.358Z,43.90
2018-11-07T17:01:20.536Z,44.60
2018-11-07T17:03:46.751Z,43.90
2018-11-07T17:06:13.509Z,43.90
2018-11-07T17:08:40.031Z,43.90
2018-11-07T17:11:06.255Z,43.90
2018-11-07T17:13:32.478Z,43.90
2018-11-07T17:15:58.778Z,43.90
2018-11-07T17:18:24.932Z,43.90
2018-11-07T17:20:51.332Z,43.90
2018-11-07T17:23:18.531Z,43.90
2018-11-07T17:25:43.632Z,43.90
2018-11-07T17:28:09.843Z,43.80
2018-11-07T17:30:36.081Z,43.80
2018-11-07T17:33:02.311Z,43.80
2018-11-07T17:35:28.531Z,43.80
2018-11-07T17:37:54.758Z,43.80
2018-11-07T17:40:20.992Z,43.80
2018-11-07T17:42:47.225Z,43.90
2018-11-07T17:45:13.459Z,43.90
2018-11-07T17:47:39.671Z,43.90
2018-11-07T17:50:05.893Z,43.80
2018-11-07T17:52:32.134Z,43.80
2018-11-07T17:54:58.355Z,44.40
2018-11-07T17:57:24.575Z,43.80
2018-11-07T17:59:50.807Z,43.80
2018-11-07T18:02:17.038Z,43.80
2018-11-07T18:04:43.262Z,43.80
2018-11-07T18:07:09.495Z,43.80
2018-11-07T18:09:35.734Z,43.80
2018-11-07T18:12:01.870Z,43.80
2018-11-07T18:14:28.171Z,43.80
2018-11-07T18:16:54.399Z,43.80
2018-11-07T18:19:21.499Z,43.80
2018-11-07T18:21:47.678Z,44.40
2018-11-07T18:24:15.105Z,43.80
2018-11-07T18:26:41.358Z,43.80
2018-11-07T18:29:07.595Z,43.80
2018-11-07T18:31:33.825Z,43.80
2018-11-07T18:34:00.052Z,43.80
2018-11-07T18:36:26.283Z,43.80
2018-11-07T18:38:52.507Z,43.80
2018-11-07T18:41:18.755Z,43.80
2018-11-07T18:43:45.099Z,43.80
2018-11-07T18:46:11.616Z,43.80
2018-11-07T18:48:37.828Z,43.80
2018-11-07T18:51:04.059Z,43.80
2018-11-07T18:53:30.304Z,43.80
2018-11-07T18:55:56.516Z,43.90
2018-11-07T18:58:22.829Z,43.80
2018-11-07T19:00:48.972Z,43.80
2018-11-07T19:03:15.203Z,43.80
2018-11-07T19:05:41.423Z,43.80
2018-11-07T19:08:07.646Z,43.90
2018-11-07T19:10:33.905Z,43.80
2018-11-07T19:13:00.113Z,43.90
2018-11-07T19:15:26.338Z,43.90
2018-11-07T19:17:52.577Z,43.90
2018-11-07T19:20:18.809Z,43.90
2018-11-07T19:22:45.052Z,43.90
2018-11-07T19:25:11.249Z,43.90
2018-11-07T19:27:37.471Z,43.90
2018-11-07T19:30:03.696Z,43.90
2018-11-07T19:32:29.933Z,43.90
2018-11-07T19:34:56.163Z,43.90
2018-11-07T19:37:22.392Z,43.90
2018-11-07T19:39:48.614Z,43.90
2018-11-07T19:42:14.848Z,43.90
2018-11-07T19:44:41.064Z,44.00
2018-11-07T19:47:07.388Z,44.10
2018-11-07T19:49:33.533Z,44.00
2018-11-07T19:51:59.775Z,44.00
2018-11-07T19:54:25.985Z,44.10
2018-11-07T19:56:52.213Z,44.20
2018-11-07T19:59:18.443Z,44.20
2018-11-07T20:01:44.667Z,44.20
2018-11-07T20:04:11.130Z,44.10
2018-11-07T20:06:38.548Z,44.20
2018-11-07T20:09:09.495Z,44.10
2018-11-07T20:11:35.783Z,44.20
2018-11-07T20:14:01.962Z,44.20
2018-11-07T20:16:28.216Z,44.20
2018-11-07T20:18:54.407Z,44.20
2018-11-07T20:21:20.634Z,44.20
2018-11-07T20:23:46.863Z,44.20
2018-11-07T20:26:13.087Z,44.20
2018-11-07T20:28:39.378Z,44.20
2018-11-07T20:31:05.544Z,44.20
2018-11-07T20:33:31.778Z,44.20
2018-11-07T20:35:58.155Z,44.20
2018-11-07T20:38:24.303Z,44.20
2018-11-07T20:40:50.463Z,44.20
2018-11-07T20:43:16.740Z,44.10
2018-11-07T20:45:42.911Z,44.20
2018-11-07T20:48:09.156Z,44.10
2018-11-07T20:50:35.372Z,44.20
2018-11-07T20:53:01.595Z,44.10
2018-11-07T20:55:27.827Z,44.10
2018-11-07T20:57:54.051Z,44.20
2018-11-07T21:00:20.284Z,44.10
2018-11-07T21:02:46.511Z,44.20
2018-11-07T21:05:12.738Z,44.10
2018-11-07T21:07:38.969Z,44.10
2018-11-07T21:10:05.188Z,44.10
2018-11-07T21:12:31.440Z,44.20
2018-11-07T21:14:57.657Z,44.10
2018-11-07T21:17:23.899Z,44.10
2018-11-07T21:19:52.012Z,44.10
2018-11-07T21:22:18.190Z,44.10
2018-11-07T21:24:44.406Z,44.10
2018-11-07T21:27:11.743Z,44.20
2018-11-07T21:29:37.889Z,44.70
2018-11-07T21:32:04.116Z,44.10
2018-11-07T21:34:30.344Z,44.10
2018-11-07T21:36:56.576Z,44.10
2018-11-07T21:39:22.799Z,44.10
2018-11-07T21:41:49.031Z,44.10
2018-11-07T21:44:15.246Z,44.10
2018-11-07T21:46:41.485Z,44.10
2018-11-07T21:49:07.712Z,44.10
2018-11-07T21:51:33.940Z,44.10
2018-11-07T21:54:00.165Z,44.10
2018-11-07T21:56:26.436Z,44.10
2018-11-07T21:58:52.612Z,44.10
2018-11-07T22:01:18.839Z,44.20
2018-11-07T22:03:45.085Z,44.10
2018-11-07T22:06:11.306Z,44.10
2018-11-07T22:08:37.536Z,44.10
2018-11-07T22:11:03.764Z,44.10
2018-11-07T22:13:29.986Z,44.10
2018-11-07T22:15:56.215Z,44.10
2018-11-07T22:18:22.432Z,44.10
2018-11-07T22:20:48.667Z,44.10
2018-11-07T22:23:14.890Z,44.20
2018-11-07T22:25:41.122Z,44.10
2018-11-07T22:28:07.351Z,44.10
2018-11-07T22:30:33.579Z,44.10
2018-11-07T22:32:59.809Z,44.10
2018-11-07T22:35:26.031Z,44.20
2018-11-07T22:37:52.255Z,44.10
2018-11-07T22:40:18.488Z,44.10
2018-11-07T22:42:44.719Z,44.10
2018-11-07T22:45:10.960Z,44.10
2018-11-07T22:47:37.171Z,44.20
2018-11-07T22:50:03.393Z,44.10
2018-11-07T22:52:29.628Z,44.10
2018-11-07T22:54:55.862Z,44.10
2018-11-07T22:57:22.089Z,44.20
2018-11-07T22:59:48.308Z,44.20
2018-11-07T23:02:14.545Z,44.20
2018-11-07T23:04:40.774Z,44.20
2018-11-07T23:07:06.995Z,44.20
2018-11-07T23:09:33.227Z,44.20
2018-11-07T23:11:59.450Z,44.20
2018-11-07T23:14:25.676Z,44.20
2018-11-07T23:16:51.907Z,44.20
2018-11-07T23:19:18.184Z,44.20
2018-11-07T23:21:44.361Z,44.20
2018-11-07T23:24:10.584Z,44.20
2018-11-07T23:26:36.823Z,44.20
2018-11-07T23:29:03.029Z,44.20
2018-11-07T23:31:29.264Z,44.20
2018-11-07T23:33:55.484Z,44.20
2018-11-07T23:36:21.734Z,44.20
2018-11-07T23:38:47.989Z,44.20
2018-11-07T23:41:14.175Z,44.20
2018-11-07T23:43:40.403Z,44.20
2018-11-07T23:46:06.627Z,44.20
2018-11-07T23:48:32.856Z,44.20
2018-11-07T23:50:59.087Z,44.20
2018-11-07T23:53:25.350Z,44.20
2018-11-07T23:55:51.653Z,44.20
2018-11-07T23:58:18.176Z,44.20
